createdAt,value
2023-01-15T00:00:46.562Z,26.30
2023-01-15T00:03:13.344Z,24.58
2023-01-15T00:05:40.131Z,27.10
2023-01-15T00:08:06.975Z,25.20
2023-01-15T00:10:34.821Z,25.40
2023-01-15T00:13:01.698Z,25.95
2023-01-15T00:15:28.576Z,26.15
2023-01-15T00:17:55.382Z,25.98
2023-01-15T00:20:23.382Z,26.27
2023-01-15T00:22:50.248Z,24.90
2023-01-15T00:25:35.955Z,25.15
2023-01-15T00:28:02.768Z,24.48
2023-01-15T00:30:29.688Z,24.30
2023-01-15T00:32:57.435Z,25.08
2023-01-15T00:35:24.927Z,24.02
2023-01-15T00:37:52.307Z,25.60
2023-01-15T00:40:20.673Z,24.92
2023-01-15T00:42:54.073Z,24.35
2023-01-15T00:45:22.138Z,25.38
2023-01-15T00:47:50.613Z,22.98
2023-01-15T00:50:17.448Z,23.42
2023-01-15T00:52:44.506Z,24.10
2023-01-15T00:55:11.342Z,22.63
2023-01-15T00:57:38.224Z,23.90
2023-01-15T01:00:05.866Z,23.55
2023-01-15T01:02:32.910Z,21.17
2023-01-15T01:04:59.909Z,23.10
2023-01-15T01:07:26.793Z,23.05
2023-01-15T01:09:53.644Z,22.30
2023-01-15T01:12:23.977Z,21.05
2023-01-15T01:14:50.753Z,20.13
2023-01-15T01:17:17.652Z,20.35
2023-01-15T01:19:44.517Z,19.55
2023-01-15T01:22:11.336Z,20.25
2023-01-15T01:24:38.189Z,18.52
2023-01-15T01:27:05.030Z,19.73
2023-01-15T01:29:31.981Z,18.23
2023-01-15T01:31:58.794Z,18.67
2023-01-15T01:34:25.891Z,18.73
2023-01-15T01:36:52.712Z,18.67
2023-01-15T01:39:20.203Z,19.08
2023-01-15T01:41:47.953Z,18.63
2023-01-15T01:44:33.020Z,18.33
2023-01-15T01:47:02.196Z,18.30
2023-01-15T01:49:30.373Z,18.67
2023-01-15T01:52:08.824Z,18.73
2023-01-15T01:54:38.633Z,18.15
2023-01-15T01:57:07.126Z,20.45
2023-01-15T01:59:34.446Z,18.65
2023-01-15T02:02:01.365Z,19.75
2023-01-15T02:04:29.765Z,17.85
2023-01-15T02:06:58.795Z,17.70
2023-01-15T02:09:25.648Z,18.05
2023-01-15T02:11:57.629Z,17.67
2023-01-15T02:14:39.496Z,16.88
2023-01-15T02:17:29.799Z,17.17
2023-01-15T02:20:11.529Z,16.80
2023-01-15T02:22:53.569Z,16.73
2023-01-15T02:25:39.393Z,16.83
2023-01-15T02:28:28.731Z,16.50
2023-01-15T02:31:08.883Z,16.02
2023-01-15T02:34:02.162Z,15.65
2023-01-15T02:36:31.689Z,16.60
2023-01-15T02:39:01.611Z,17.88
2023-01-15T02:41:34.806Z,17.00
2023-01-15T02:44:04.786Z,16.40
2023-01-15T02:46:34.972Z,15.77
2023-01-15T02:49:05.061Z,15.13
2023-01-15T02:51:40.242Z,15.43
2023-01-15T02:54:13.392Z,14.05
2023-01-15T02:56:56.055Z,15.30
2023-01-15T02:59:28.471Z,14.82
2023-01-15T03:02:00.131Z,14.77
2023-01-15T03:04:41.083Z,14.80
2023-01-15T03:07:21.584Z,15.50
2023-01-15T03:09:49.246Z,14.43
2023-01-15T03:12:55.552Z,15.10
2023-01-15T03:16:01.298Z,15.07
2023-01-15T03:18:33.021Z,14.73
2023-01-15T03:21:05.273Z,14.65
2023-01-15T03:23:37.844Z,14.75
2023-01-15T03:26:04.837Z,14.52
2023-01-15T03:28:35.400Z,13.55
2023-01-15T03:31:02.611Z,13.95
2023-01-15T03:33:29.978Z,14.52
2023-01-15T03:36:01.876Z,13.30
2023-01-15T03:38:36.025Z,13.27
2023-01-15T03:41:17.207Z,12.40
2023-01-15T03:44:00.310Z,13.18
2023-01-15T03:46:43.191Z,12.65
2023-01-15T03:49:25.732Z,12.30
2023-01-15T03:54:42.541Z,12.10
2023-01-15T03:57:21.497Z,12.50
2023-01-15T03:59:55.892Z,12.55
2023-01-15T04:02:24.585Z,12.40
2023-01-15T04:04:53.477Z,12.30
2023-01-15T04:07:21.575Z,12.80
2023-01-15T04:09:48.889Z,12.10
2023-01-15T04:12:15.760Z,12.25
2023-01-15T04:14:43.009Z,12.35
2023-01-15T04:17:27.247Z,12.15
2023-01-15T04:19:54.104Z,12.07
2023-01-15T04:22:20.918Z,10.95
2023-01-15T04:24:47.738Z,11.75
2023-01-15T04:27:14.596Z,12.63
2023-01-15T04:29:41.384Z,11.48
2023-01-15T04:32:08.214Z,11.98
2023-01-15T04:34:35.976Z,11.43
2023-01-15T04:37:02.893Z,10.35
2023-01-15T04:39:29.718Z,11.30
2023-01-15T04:42:15.139Z,11.93
2023-01-15T04:44:41.996Z,11.18
2023-01-15T04:47:09.138Z,11.07
2023-01-15T04:49:36.148Z,11.95
2023-01-15T04:52:03.368Z,10.77
2023-01-15T04:54:30.356Z,10.68
2023-01-15T04:56:57.221Z,11.43
2023-01-15T04:59:26.649Z,12.90
2023-01-15T05:02:03.813Z,14.23
2023-01-15T05:04:33.407Z,11.90
2023-01-15T05:07:02.700Z,11.73
2023-01-15T05:09:29.579Z,11.10
2023-01-15T05:11:56.455Z,10.63
2023-01-15T05:14:23.456Z,11.00
2023-01-15T05:16:50.276Z,10.68
2023-01-15T05:19:17.125Z,9.45
2023-01-15T05:21:45.441Z,10.02
2023-01-15T05:24:17.291Z,10.63
2023-01-15T05:26:44.596Z,11.82
2023-01-15T05:29:12.272Z,10.93
2023-01-15T05:31:39.700Z,12.35
2023-01-15T05:34:06.551Z,11.82
2023-01-15T05:36:33.632Z,11.82
2023-01-15T05:39:02.290Z,10.70
2023-01-15T05:41:48.549Z,11.27
2023-01-15T05:44:18.452Z,10.38
2023-01-15T05:46:46.732Z,11.65
2023-01-15T05:49:20.393Z,11.35
2023-01-15T05:51:47.523Z,10.27
2023-01-15T05:54:25.947Z,11.80
2023-01-15T05:56:53.755Z,11.73
2023-01-15T05:59:23.597Z,11.35
2023-01-15T06:01:50.912Z,11.10
2023-01-15T06:04:21.316Z,11.95
2023-01-15T06:06:53.180Z,12.00
2023-01-15T06:09:29.807Z,11.52
2023-01-15T06:11:57.522Z,11.45
2023-01-15T06:14:24.783Z,12.85
2023-01-15T06:16:51.726Z,12.20
2023-01-15T06:19:18.669Z,11.50
2023-01-15T06:21:45.802Z,11.65
2023-01-15T06:24:12.756Z,12.20
2023-01-15T06:26:39.829Z,12.95
2023-01-15T06:29:06.859Z,12.98
2023-01-15T06:31:33.928Z,13.02
2023-01-15T06:34:00.774Z,12.63
2023-01-15T06:36:28.511Z,11.70
2023-01-15T06:38:55.387Z,12.85
2023-01-15T06:41:42.565Z,12.82
2023-01-15T06:44:34.642Z,13.40
2023-01-15T06:47:21.188Z,13.45
2023-01-15T06:49:58.733Z,14.10
2023-01-15T06:52:27.549Z,15.18
2023-01-15T06:54:54.884Z,15.85
2023-01-15T06:57:22.381Z,17.30
2023-01-15T06:59:49.873Z,17.42
2023-01-15T07:02:18.288Z,20.05
2023-01-15T07:04:46.802Z,19.52
2023-01-15T07:07:25.335Z,19.63
2023-01-15T07:09:52.209Z,21.83
2023-01-15T07:12:19.473Z,22.08
2023-01-15T07:14:46.512Z,20.98
2023-01-15T07:17:13.794Z,21.95
2023-01-15T07:19:40.925Z,21.30
2023-01-15T07:22:09.453Z,22.52
2023-01-15T07:24:36.405Z,26.60
2023-01-15T07:27:03.828Z,24.55
2023-01-15T07:29:31.562Z,22.63
2023-01-15T07:32:01.140Z,22.80
2023-01-15T07:34:27.943Z,25.10
2023-01-15T07:36:54.828Z,22.60
2023-01-15T07:39:21.666Z,17.48
2023-01-15T07:42:07.933Z,15.95
2023-01-15T07:44:53.086Z,15.05
2023-01-15T07:47:43.783Z,16.63
2023-01-15T07:50:16.548Z,17.15
2023-01-15T07:52:46.786Z,15.07
2023-01-15T07:55:15.068Z,16.37
2023-01-15T07:57:43.570Z,15.52
2023-01-15T08:00:19.030Z,16.30
2023-01-15T08:02:50.128Z,16.92
2023-01-15T08:05:18.092Z,17.17
2023-01-15T08:07:49.158Z,18.50
2023-01-15T08:10:16.225Z,21.42
2023-01-15T08:13:02.603Z,19.23
2023-01-15T08:15:37.901Z,18.30
2023-01-15T08:18:05.648Z,19.00
2023-01-15T08:20:34.625Z,17.27
2023-01-15T08:23:02.697Z,18.08
2023-01-15T08:25:29.562Z,18.17
2023-01-15T08:28:01.057Z,17.00
2023-01-15T08:30:27.863Z,18.05
2023-01-15T08:33:00.606Z,17.48
2023-01-15T08:35:27.555Z,17.38
2023-01-15T08:37:57.083Z,16.45
2023-01-15T08:40:23.940Z,17.30
2023-01-15T08:42:51.216Z,18.70
2023-01-15T08:45:18.028Z,16.00
2023-01-15T08:47:44.981Z,16.05
2023-01-15T08:50:12.871Z,15.10
2023-01-15T08:52:40.042Z,14.05
2023-01-15T08:55:09.852Z,14.10
2023-01-15T08:57:38.475Z,16.10
2023-01-15T09:00:07.077Z,17.77
2023-01-15T09:02:37.680Z,16.75
2023-01-15T09:05:05.854Z,19.40
2023-01-15T09:07:32.931Z,21.00
2023-01-15T09:10:00.183Z,21.25
2023-01-15T09:12:27.545Z,21.98
2023-01-15T09:14:58.050Z,24.08
2023-01-15T09:17:29.178Z,22.45
2023-01-15T09:19:56.062Z,21.38
2023-01-15T09:22:23.086Z,21.60
2023-01-15T09:24:50.850Z,20.42
2023-01-15T09:30:00.523Z,20.73
2023-01-15T09:32:28.444Z,21.20
2023-01-15T09:35:15.796Z,21.85
2023-01-15T09:37:42.690Z,20.17
2023-01-15T09:40:27.178Z,20.50
2023-01-15T09:43:32.855Z,20.98
2023-01-15T09:46:09.321Z,20.70
2023-01-15T09:48:54.322Z,22.60
2023-01-15T09:51:58.857Z,22.15
2023-01-15T09:54:41.058Z,24.05
2023-01-15T09:57:14.204Z,22.08
2023-01-15T09:59:45.689Z,30.00
2023-01-15T10:02:43.206Z,26.77
2023-01-15T10:05:16.888Z,22.88
2023-01-15T10:08:04.803Z,22.55
2023-01-15T10:10:44.835Z,24.83
2023-01-15T10:13:40.983Z,37.08
2023-01-15T10:16:10.889Z,33.30
2023-01-15T10:18:38.345Z,29.58
2023-01-15T10:21:44.671Z,28.73
2023-01-15T10:24:28.910Z,29.48
2023-01-15T10:26:57.887Z,30.33
2023-01-15T10:29:50.328Z,27.73
2023-01-15T10:33:01.399Z,24.92
2023-01-15T10:35:35.964Z,22.20
2023-01-15T10:38:24.277Z,23.23
2023-01-15T10:40:53.930Z,21.58
2023-01-15T10:43:28.794Z,22.90
2023-01-15T10:46:10.471Z,23.27
2023-01-15T10:49:20.769Z,23.05
2023-01-15T10:51:50.418Z,26.70
2023-01-15T10:54:29.216Z,25.35
2023-01-15T10:57:11.941Z,27.67
2023-01-15T10:59:43.282Z,26.60
2023-01-15T11:02:24.215Z,26.57
2023-01-15T11:04:51.287Z,27.20
2023-01-15T11:07:19.354Z,41.78
2023-01-15T11:09:47.367Z,41.47
2023-01-15T11:12:23.196Z,34.72
2023-01-15T11:15:09.458Z,33.55
2023-01-15T11:20:50.374Z,39.03
2023-01-15T11:23:21.489Z,37.10
2023-01-15T11:28:47.219Z,30.73
2023-01-15T11:31:16.099Z,28.95
2023-01-15T11:34:09.655Z,28.38
2023-01-15T11:36:41.450Z,31.30
2023-01-15T11:39:27.808Z,31.65
2023-01-15T11:42:25.086Z,35.10
2023-01-15T11:45:38.581Z,33.85
2023-01-15T11:48:46.187Z,31.67
2023-01-15T11:51:16.864Z,32.17
2023-01-15T11:53:50.211Z,34.50
2023-01-15T11:56:20.765Z,32.75
2023-01-15T11:58:58.020Z,32.47
2023-01-15T12:01:34.862Z,33.50
2023-01-15T12:04:23.059Z,38.53
2023-01-15T12:06:58.794Z,43.55
2023-01-15T12:09:33.477Z,38.25
2023-01-15T12:12:25.346Z,36.42
2023-01-15T12:15:07.846Z,35.85
2023-01-15T12:17:56.677Z,38.42
2023-01-15T12:23:50.079Z,39.25
2023-01-15T12:26:42.361Z,38.45
2023-01-15T12:29:16.497Z,39.38
2023-01-15T12:35:18.373Z,38.28
2023-01-15T12:37:51.613Z,37.08
2023-01-15T12:40:29.312Z,36.45
2023-01-15T12:43:16.338Z,31.98
2023-01-15T12:45:50.596Z,32.72
2023-01-15T12:48:35.667Z,32.88
2023-01-15T12:51:06.078Z,33.58
2023-01-15T12:53:51.624Z,32.05
2023-01-15T12:56:42.150Z,32.47
2023-01-15T12:59:45.191Z,33.65
2023-01-15T13:03:11.199Z,33.90
2023-01-15T13:05:51.101Z,32.78
2023-01-15T13:08:55.529Z,38.88
2023-01-15T13:11:22.824Z,36.75
2023-01-15T13:13:58.999Z,37.60
2023-01-15T13:16:58.896Z,38.55
2023-01-15T13:19:37.276Z,43.03
2023-01-15T13:22:12.942Z,42.65
2023-01-15T13:24:53.507Z,43.88
2023-01-15T13:27:50.289Z,45.30
2023-01-15T13:30:35.897Z,38.88
2023-01-15T13:33:26.966Z,36.08
2023-01-15T13:36:01.789Z,35.25
2023-01-15T13:38:37.634Z,34.03
2023-01-15T13:41:09.860Z,36.55
2023-01-15T13:43:40.751Z,36.28
2023-01-15T13:46:13.664Z,36.15
2023-01-15T13:48:52.021Z,36.67
2023-01-15T13:51:30.242Z,36.88
2023-01-15T13:54:00.218Z,37.70
2023-01-15T13:56:33.352Z,37.80
2023-01-15T13:59:06.561Z,36.58
2023-01-15T14:01:36.179Z,37.75
2023-01-15T14:04:15.824Z,38.05
2023-01-15T14:06:48.923Z,37.17
2023-01-15T14:09:20.980Z,37.28
2023-01-15T14:12:27.749Z,37.50
2023-01-15T14:15:15.696Z,36.47
2023-01-15T14:18:04.403Z,36.03
2023-01-15T14:20:34.651Z,39.80
2023-01-15T14:23:32.854Z,39.47
2023-01-15T14:26:34.697Z,37.65
2023-01-15T14:29:27.757Z,38.33
2023-01-15T14:32:25.842Z,38.35
2023-01-15T14:34:59.981Z,39.92
2023-01-15T14:37:44.256Z,39.92
2023-01-15T14:40:20.190Z,39.20
2023-01-15T14:43:02.562Z,38.67
2023-01-15T14:45:39.871Z,41.92
2023-01-15T14:48:21.138Z,43.47
2023-01-15T14:50:50.039Z,42.95
2023-01-15T14:53:38.733Z,41.38
2023-01-15T14:56:22.224Z,44.33
2023-01-15T14:59:10.576Z,44.15
2023-01-15T15:01:45.874Z,44.15
2023-01-15T15:04:34.626Z,44.13
2023-01-15T15:07:56.915Z,44.95
2023-01-15T15:10:12.028Z,46.65
2023-01-15T15:13:06.960Z,50.50
2023-01-15T15:16:06.481Z,58.90
2023-01-15T15:18:48.304Z,62.72
2023-01-15T15:21:25.080Z,58.28
2023-01-15T15:24:25.665Z,55.75
2023-01-15T15:26:52.924Z,50.20
2023-01-15T15:29:22.040Z,50.03
2023-01-15T15:31:57.071Z,50.90
2023-01-15T15:34:35.527Z,51.42
2023-01-15T15:37:18.810Z,52.50
2023-01-15T15:39:55.674Z,51.50
2023-01-15T15:42:51.592Z,52.00
2023-01-15T15:45:41.801Z,51.72
2023-01-15T15:48:43.067Z,55.70
2023-01-15T15:51:30.357Z,53.00
2023-01-15T15:54:15.944Z,54.72
2023-01-15T15:56:52.554Z,54.35
2023-01-15T15:59:30.037Z,54.30
2023-01-15T16:02:01.893Z,50.95
2023-01-15T16:04:29.011Z,51.53
2023-01-15T16:06:56.131Z,51.10
2023-01-15T16:09:24.571Z,50.90
2023-01-15T16:11:53.739Z,54.38
2023-01-15T16:14:21.963Z,54.97
2023-01-15T16:16:51.304Z,60.97
2023-01-15T16:19:22.879Z,58.85
2023-01-15T16:21:51.144Z,59.60
2023-01-15T16:24:30.099Z,58.22
2023-01-15T16:27:16.799Z,58.45
2023-01-15T16:29:50.727Z,58.95
2023-01-15T16:35:29.614Z,63.15
2023-01-15T16:38:00.709Z,66.28
2023-01-15T16:40:38.832Z,70.50
2023-01-15T16:43:10.656Z,61.20
2023-01-15T16:46:00.548Z,65.00
2023-01-15T16:48:34.141Z,62.50
2023-01-15T16:51:26.928Z,62.53
2023-01-15T16:53:53.969Z,61.65
2023-01-15T16:56:43.856Z,62.28
2023-01-15T16:59:28.730Z,60.97
2023-01-15T17:02:04.045Z,59.17
2023-01-15T17:04:42.317Z,59.10
2023-01-15T17:07:49.781Z,62.00
2023-01-15T17:10:22.255Z,59.85
2023-01-15T17:12:50.356Z,70.40
2023-01-15T17:15:17.701Z,59.33
2023-01-15T17:18:20.466Z,64.80
2023-01-15T17:20:51.641Z,67.43
2023-01-15T17:23:41.678Z,64.85
2023-01-15T17:26:18.006Z,64.53
2023-01-15T17:28:45.415Z,69.80
2023-01-15T17:31:34.473Z,68.18
2023-01-15T17:34:03.704Z,67.47
2023-01-15T17:36:31.240Z,69.68
2023-01-15T17:38:58.337Z,67.40
2023-01-15T17:41:27.713Z,60.72
2023-01-15T17:43:58.714Z,56.65
2023-01-15T17:46:27.284Z,59.45
2023-01-15T17:48:55.630Z,65.13
2023-01-15T17:51:23.362Z,63.17
2023-01-15T17:53:51.518Z,68.90
2023-01-15T17:56:37.764Z,68.93
2023-01-15T17:59:33.582Z,70.30
2023-01-15T18:02:19.268Z,76.88
2023-01-15T18:05:10.557Z,74.53
2023-01-15T18:07:41.913Z,79.20
2023-01-15T18:10:25.994Z,67.90
2023-01-15T18:12:53.763Z,70.70
2023-01-15T18:15:28.463Z,68.20
2023-01-15T18:17:58.724Z,73.32
2023-01-15T18:20:43.718Z,79.22
2023-01-15T18:23:10.800Z,82.32
2023-01-15T18:25:50.995Z,75.88
2023-01-15T18:28:20.606Z,66.53
2023-01-15T18:30:48.541Z,68.63
2023-01-15T18:33:16.462Z,71.55
2023-01-15T18:35:43.953Z,69.20
2023-01-15T18:38:17.310Z,61.88
2023-01-15T18:40:46.196Z,59.58
2023-01-15T18:43:34.905Z,60.35
2023-01-15T18:46:38.345Z,61.35
2023-01-15T18:49:07.048Z,59.08
2023-01-15T18:51:35.214Z,57.03
2023-01-15T18:56:49.195Z,54.40
2023-01-15T18:59:18.405Z,51.60
2023-01-15T19:01:51.255Z,54.60
2023-01-15T19:04:20.310Z,50.78
2023-01-15T19:06:48.292Z,51.53
2023-01-15T19:09:16.826Z,51.20
2023-01-15T19:11:47.224Z,53.22
2023-01-15T19:14:33.129Z,53.20
2023-01-15T19:17:20.774Z,48.97
2023-01-15T19:22:47.860Z,48.28
2023-01-15T19:25:15.037Z,46.22
2023-01-15T19:27:42.133Z,47.40
2023-01-15T19:30:11.505Z,45.10
2023-01-15T19:32:41.027Z,44.72
2023-01-15T19:35:08.791Z,49.72
2023-01-15T19:37:39.546Z,49.25
2023-01-15T19:40:23.744Z,50.60
2023-01-15T19:43:09.982Z,51.63
2023-01-15T19:45:59.455Z,52.03
2023-01-15T19:48:46.673Z,52.05
2023-01-15T19:51:14.242Z,50.33
2023-01-15T19:53:41.543Z,52.35
2023-01-15T19:56:09.220Z,51.17
2023-01-15T19:58:37.259Z,54.78
2023-01-15T20:01:04.933Z,61.33
2023-01-15T20:03:32.336Z,53.15
2023-01-15T20:05:59.401Z,51.47
2023-01-15T20:08:27.388Z,47.60
2023-01-15T20:11:01.464Z,52.10
2023-01-15T20:13:46.804Z,57.13
2023-01-15T20:16:17.889Z,54.30
2023-01-15T20:18:50.667Z,50.38
2023-01-15T20:21:22.957Z,53.20
2023-01-15T20:26:35.681Z,50.88
2023-01-15T20:29:05.263Z,53.38
2023-01-15T20:31:35.890Z,56.97
2023-01-15T20:34:12.375Z,54.65
2023-01-15T20:39:30.195Z,52.85
2023-01-15T20:45:11.184Z,52.13
2023-01-15T20:48:25.820Z,52.97
2023-01-15T20:51:01.434Z,53.65
2023-01-15T20:56:17.320Z,56.03
2023-01-15T20:58:59.163Z,56.05
2023-01-15T21:01:27.271Z,55.53
2023-01-15T21:03:54.432Z,55.67
2023-01-15T21:06:22.698Z,56.08
2023-01-15T21:08:51.674Z,54.88
2023-01-15T21:11:23.118Z,51.58
2023-01-15T21:13:51.225Z,50.78
2023-01-15T21:21:46.143Z,54.72
2023-01-15T21:24:13.588Z,53.78
2023-01-15T21:26:40.528Z,55.67
2023-01-15T21:29:07.355Z,55.60
2023-01-15T21:31:35.017Z,55.75
2023-01-15T21:34:02.811Z,56.97
2023-01-15T21:36:30.179Z,56.55
2023-01-15T21:38:58.906Z,50.30
2023-01-15T21:41:49.754Z,48.38
2023-01-15T21:44:36.170Z,46.28
2023-01-15T21:47:07.088Z,46.60
2023-01-15T21:49:36.547Z,52.47
2023-01-15T21:52:06.458Z,46.97
2023-01-15T21:54:34.232Z,51.30
2023-01-15T21:57:01.759Z,51.42
2023-01-15T21:59:28.740Z,47.58
2023-01-15T22:01:57.758Z,48.25
2023-01-15T22:04:28.544Z,52.08
2023-01-15T22:06:58.653Z,56.83
2023-01-15T22:09:25.625Z,56.90
2023-01-15T22:11:52.807Z,65.30
2023-01-15T22:14:23.743Z,52.97
2023-01-15T22:16:54.224Z,60.10
2023-01-15T22:19:27.785Z,63.17
2023-01-15T22:21:57.877Z,54.72
2023-01-15T22:24:30.075Z,58.00
2023-01-15T22:26:57.854Z,58.28
2023-01-15T22:29:33.224Z,56.28
2023-01-15T22:32:01.032Z,54.67
2023-01-15T22:34:28.328Z,52.83
2023-01-15T22:36:55.560Z,55.13
2023-01-15T22:39:23.541Z,54.47
2023-01-15T22:42:09.477Z,51.78
2023-01-15T22:44:36.825Z,51.83
2023-01-15T22:47:05.179Z,52.85
2023-01-15T22:49:32.672Z,50.05
2023-01-15T22:51:59.573Z,51.88
2023-01-15T22:54:26.374Z,52.10
2023-01-15T22:56:53.254Z,61.63
2023-01-15T22:59:20.348Z,55.53
2023-01-15T23:01:47.682Z,62.78
2023-01-15T23:04:17.800Z,61.28
2023-01-15T23:06:45.650Z,52.50
2023-01-15T23:09:13.518Z,53.00
2023-01-15T23:11:40.940Z,50.25
2023-01-15T23:14:08.935Z,50.83
2023-01-15T23:16:35.740Z,51.88
2023-01-15T23:19:02.817Z,50.78
2023-01-15T23:21:30.363Z,50.80
2023-01-15T23:23:59.439Z,52.80
2023-01-15T23:26:29.105Z,52.05
2023-01-15T23:28:55.994Z,49.17
2023-01-15T23:31:24.343Z,48.55
2023-01-15T23:33:53.121Z,48.67
2023-01-15T23:36:20.246Z,49.20
2023-01-15T23:38:47.498Z,49.70
2023-01-15T23:41:17.626Z,50.80
2023-01-15T23:44:03.385Z,53.70
2023-01-15T23:46:33.547Z,52.65
2023-01-15T23:49:03.381Z,51.55
2023-01-15T23:51:30.730Z,59.50
2023-01-15T23:53:58.338Z,54.72
2023-01-15T23:56:25.450Z,50.17
2023-01-15T23:58:52.834Z,58.35
